Time;durP1;ratioP1;P1;durP2;ratioP2;P2;SDS_P1;SDS_P2;PMS_P1;PMS_P2;Temp;Humidity;BMP_temperature;BMP_pressure;BME280_temperature;BME280_humidity;BME280_pressure;Samples;Min_cycle;Max_cycle;Signal;HPM_P1;HPM_P2
2023/01/18 00:01:29;;;;;;;43.92;19.05;;;2.40;70.20;;;-2.63;100.00;92626.19;4994582;28;20061;-55
2023/01/18 00:03:55;;;;;;;46.15;19.52;;;2.50;70.40;;;-2.52;100.00;92634.03;4994845;28;20021;-54
2023/01/18 00:06:20;;;;;;;44.78;19.90;;;2.50;70.40;;;-2.44;100.00;92633.53;4983790;28;20032;-56
2023/01/18 00:08:46;;;;;;;44.50;18.60;;;2.60;70.50;;;-2.34;100.00;92641.38;4965007;28;20022;-54
2023/01/18 00:11:17;;;;;;;43.60;18.95;;;2.70;70.50;;;-2.27;100.00;92634.09;4987138;28;20029;-55
2023/01/18 00:13:45;;;;;;;47.00;19.80;;;2.80;70.50;;;-2.21;100.00;92629.69;5002405;28;20032;-56
2023/01/18 00:16:20;;;;;;;56.08;20.67;;;2.90;70.50;;;-2.15;100.00;92632.03;4995668;28;20443;-50
2023/01/18 00:18:53;;;;;;;45.47;19.02;;;2.90;70.50;;;-2.10;100.00;92631.25;4969951;28;20392;-50
2023/01/18 00:21:21;;;;;;;42.45;18.00;;;3.00;70.50;;;-2.06;100.00;92632.34;4991653;28;20037;-51
2023/01/18 00:23:50;;;;;;;61.58;23.88;;;3.00;70.30;;;-1.93;100.00;92639.66;4979423;28;20072;-52
2023/01/18 00:26:16;;;;;;;59.85;23.80;;;3.10;70.60;;;-1.73;100.00;92648.53;4974999;28;20030;-55
2023/01/18 00:28:45;;;;;;;53.13;23.60;;;3.10;70.80;;;-1.61;100.00;92638.63;4970942;28;20025;-52
2023/01/18 00:31:17;;;;;;;54.78;20.70;;;3.30;71.10;;;-1.55;100.00;92648.03;4974057;28;20034;-52
2023/01/18 00:33:45;;;;;;;45.35;18.98;;;3.30;71.00;;;-1.52;100.00;92651.97;4987935;28;20021;-55
2023/01/18 00:36:15;;;;;;;46.97;19.98;;;3.40;70.90;;;-1.48;100.00;92655.59;4971476;28;20404;-52
2023/01/18 00:38:53;;;;;;;46.72;19.83;;;3.50;70.90;;;-1.45;100.00;92657.69;4984936;28;20139;-55
2023/01/18 00:41:21;;;;;;;47.88;20.17;;;3.50;70.80;;;-1.40;100.00;92655.88;4982190;28;20038;-53
2023/01/18 00:43:54;;;;;;;49.88;20.23;;;3.60;70.90;;;-1.31;100.00;92652.75;4958457;28;20431;-56
2023/01/18 00:46:26;;;;;;;42.03;17.52;;;3.70;71.00;;;-1.22;100.00;92656.41;4985202;28;20543;-52
2023/01/18 00:48:54;;;;;;;47.20;19.70;;;3.80;70.90;;;-1.20;100.00;92655.06;4974507;28;20037;-55
2023/01/18 00:51:29;;;;;;;45.72;19.45;;;3.90;70.90;;;-1.12;100.00;92661.59;4969627;28;20025;-56
2023/01/18 00:53:54;;;;;;;48.47;20.95;;;4.00;71.00;;;-1.06;100.00;92673.63;4966029;28;20499;-50
2023/01/18 00:56:22;;;;;;;41.15;18.60;;;4.00;70.90;;;-0.98;100.00;92669.69;5003955;28;20028;-52
2023/01/18 00:58:49;;;;;;;47.25;18.17;;;4.10;71.30;;;-0.95;100.00;92664.69;4959945;28;20018;-54
2023/01/18 01:01:17;;;;;;;41.30;16.08;;;4.10;70.90;;;-0.87;100.00;92662.63;4984341;28;20091;-55
2023/01/18 01:06:45;;;;;;;31.75;14.73;;;4.30;70.90;;;-0.79;100.00;92675.91;4971842;28;20076;-53
2023/01/18 01:09:28;;;;;;;32.75;14.95;;;4.30;70.80;;;-0.77;100.00;92679.06;4991448;28;20119;-52
2023/01/18 01:26:13;;;;;;;22.50;12.00;;;4.50;70.80;;;-0.64;100.00;92690.00;4991153;28;20037;-54
2023/01/18 01:28:51;;;;;;;24.52;11.73;;;4.50;70.70;;;-0.61;100.00;92681.63;4988039;28;20029;-54
2023/01/18 01:31:19;;;;;;;21.95;11.02;;;4.50;70.70;;;-0.60;100.00;92686.56;4977762;28;20108;-54
2023/01/18 01:33:49;;;;;;;24.05;11.35;;;4.50;70.60;;;-0.60;100.00;92685.81;4973798;28;20049;-52
2023/01/18 01:36:27;;;;;;;21.27;10.65;;;4.50;70.50;;;-0.63;100.00;92684.50;4967634;28;20053;-52
2023/01/18 01:38:54;;;;;;;22.55;10.30;;;4.50;70.40;;;-0.63;100.00;92691.56;4971844;28;20172;-53
2023/01/18 01:41:25;;;;;;;25.10;11.18;;;4.50;70.30;;;-0.65;100.00;92694.47;4995052;28;20034;-53
2023/01/18 01:44:23;;;;;;;21.67;10.60;;;4.50;70.30;;;-0.66;100.00;92698.09;4975548;28;20025;-51
2023/01/18 01:47:01;;;;;;;18.45;9.00;;;4.50;70.30;;;-0.68;100.00;92687.13;5007848;28;20030;-50
2023/01/18 01:49:53;;;;;;;18.20;8.25;;;4.50;70.40;;;-0.68;100.00;92692.38;4993231;28;20075;-50
2023/01/18 01:52:32;;;;;;;13.80;7.32;;;4.50;70.40;;;-0.69;100.00;92682.94;4973521;28;20037;-56
2023/01/18 01:55:31;;;;;;;18.10;7.45;;;4.50;70.50;;;-0.71;100.00;92685.84;4968922;28;20303;-50
2023/01/18 01:58:24;;;;;;;12.30;6.63;;;4.50;70.40;;;-0.71;100.00;92688.44;4973623;28;20055;-56
2023/01/18 02:00:53;;;;;;;14.63;6.60;;;4.50;70.40;;;-0.72;100.00;92692.13;4968569;23;20050;-52
2023/01/18 02:03:24;;;;;;;10.57;5.80;;;4.40;70.30;;;-0.76;100.00;92692.91;4970783;28;20038;-51
2023/01/18 02:06:15;;;;;;;14.73;6.53;;;4.40;70.30;;;-0.76;100.00;92692.91;4953040;28;20033;-48
2023/01/18 02:08:46;;;;;;;10.05;6.07;;;4.40;70.30;;;-0.78;100.00;92706.25;4948607;28;20445;-53
2023/01/18 02:11:11;;;;;;;11.52;6.70;;;4.40;70.30;;;-0.79;100.00;92715.13;4969748;28;20036;-47
2023/01/18 02:13:38;;;;;;;11.05;5.88;;;4.40;70.30;;;-0.76;100.00;92713.81;4971077;28;20129;-49
2023/01/18 02:16:22;;;;;;;12.07;6.10;;;4.30;70.40;;;-0.76;100.00;92714.59;4969960;28;20032;-52
2023/01/18 02:19:09;;;;;;;14.77;6.88;;;4.40;70.50;;;-0.74;100.00;92709.88;4984858;28;20080;-53
2023/01/18 02:22:13;;;;;;;11.90;5.90;;;4.40;70.60;;;-0.69;100.00;92724.78;4970518;28;20392;-50
2023/01/18 02:25:25;;;;;;;11.32;5.95;;;4.40;70.70;;;-0.65;100.00;92725.81;4969143;28;20026;-50
2023/01/18 02:28:32;;;;;;;12.60;6.68;;;4.40;70.80;;;-0.60;100.00;92725.81;4985658;28;20045;-48
2023/01/18 02:31:27;;;;;;;12.63;6.25;;;4.50;71.00;;;-0.55;100.00;92725.81;4959499;28;20030;-48
2023/01/18 02:34:13;;;;;;;10.57;6.00;;;4.50;71.10;;;-0.52;100.00;92725.28;4973356;28;20447;-52
2023/01/18 02:37:37;;;;;;;11.15;5.95;;;4.50;71.00;;;-0.48;100.00;92725.53;4967855;28;20022;-51
2023/01/18 02:40:18;;;;;;;14.82;5.82;;;4.60;71.00;;;-0.45;100.00;92727.59;4969142;28;20037;-59
2023/01/18 02:48:44;;;;;;;12.77;5.53;;;4.70;71.00;;;-0.42;100.00;92736.75;4969706;28;20515;-52
2023/01/18 02:51:11;;;;;;;9.23;5.10;;;4.70;70.90;;;-0.46;100.00;92733.91;4969145;28;20076;-51
2023/01/18 02:53:45;;;;;;;7.97;4.47;;;4.70;70.80;;;-0.46;100.00;92733.91;4968594;28;20380;-51
2023/01/18 02:56:46;;;;;;;8.25;4.72;;;4.70;70.70;;;-0.45;100.00;92739.91;4956226;28;20057;-50
2023/01/18 02:59:35;;;;;;;7.88;4.53;;;4.60;71.30;;;-0.50;100.00;92735.47;4969435;28;20045;-48
2023/01/18 03:02:19;;;;;;;6.75;4.10;;;4.60;70.50;;;-0.53;100.00;92731.56;4968699;28;20066;-51
2023/01/18 03:04:55;;;;;;;8.20;4.75;;;4.60;70.50;;;-0.56;100.00;92737.31;4967759;28;20121;-49
2023/01/18 03:08:18;;;;;;;6.70;4.20;;;4.50;70.40;;;-0.63;100.00;92739.41;4967836;28;20030;-51
2023/01/18 03:11:22;;;;;;;6.20;3.60;;;4.50;70.40;;;-0.66;100.00;92736.53;4919297;28;20039;-49
2023/01/18 03:14:26;;;;;;;6.25;3.50;;;4.50;71.20;;;-0.66;100.00;92739.16;4934140;29;20294;-56
2023/01/18 03:17:40;;;;;;;6.43;3.95;;;4.40;70.40;;;-0.61;100.00;92739.94;4933887;28;20038;-50
2023/01/18 03:20:17;;;;;;;7.43;3.08;;;4.50;70.70;;;-0.55;100.00;92738.88;4935552;28;20141;-49
2023/01/18 03:23:48;;;;;;;4.80;2.88;;;4.50;70.80;;;-0.48;100.00;92741.22;4920420;28;20039;-49
2023/01/18 03:26:23;;;;;;;4.60;2.80;;;4.60;70.70;;;-0.45;100.00;92742.53;4939777;28;20110;-51
2023/01/18 03:35:25;;;;;;;3.83;2.30;;;4.60;70.30;;;-0.49;100.00;92750.13;4880750;29;20067;-53
2023/01/18 03:37:59;;;;;;;3.40;2.17;;;4.60;70.30;;;-0.46;100.00;92749.59;4920136;28;20031;-49
2023/01/18 03:40:30;;;;;;;3.45;2.20;;;4.60;70.30;;;-0.44;100.00;92752.69;4920590;28;20031;-51
2023/01/18 03:43:16;;;;;;;5.60;2.35;;;4.60;70.30;;;-0.42;100.00;92758.47;4959227;28;20030;-48
2023/01/18 03:45:48;;;;;;;6.07;2.17;;;4.70;70.30;;;-0.41;100.00;92759.25;4973804;28;20050;-47
2023/01/18 03:48:17;;;;;;;4.65;1.58;;;4.70;70.30;;;-0.38;100.00;92759.50;4971841;28;20021;-48
2023/01/18 03:51:30;;;;;;;1.98;1.50;;;4.70;70.20;;;-0.36;100.00;92770.47;4955927;28;20026;-55
2023/01/18 03:54:27;;;;;;;1.67;1.10;;;4.80;70.60;;;-0.32;100.00;92762.88;4960582;28;20499;-48
2023/01/18 03:57:07;;;;;;;2.50;1.60;;;4.80;70.30;;;-0.29;100.00;92768.38;4987587;28;20053;-50
2023/01/18 03:59:39;;;;;;;2.97;1.65;;;4.80;70.30;;;-0.25;100.00;92768.63;4971024;28;20034;-50
2023/01/18 04:02:08;;;;;;;5.78;1.50;;;4.80;70.10;;;-0.26;100.00;92773.06;4981021;28;20386;-51
2023/01/18 04:04:34;;;;;;;2.15;1.15;;;4.80;70.00;;;-0.28;100.00;92777.03;4976572;28;20480;-48
2023/01/18 04:07:06;;;;;;;3.95;1.35;;;4.80;70.00;;;-0.32;100.00;92781.19;4972082;28;20042;-52
2023/01/18 04:09:38;;;;;;;4.55;1.50;;;4.80;70.00;;;-0.31;100.00;92782.78;4972227;28;20026;-51
2023/01/18 04:12:04;;;;;;;4.17;1.97;;;4.80;70.00;;;-0.27;100.00;92784.59;4965015;28;20436;-50
2023/01/18 04:14:39;;;;;;;2.65;1.55;;;4.80;70.10;;;-0.26;100.00;92794.00;4972464;28;20284;-54
2023/01/18 04:17:05;;;;;;;2.28;1.52;;;4.80;70.10;;;-0.29;100.00;92791.13;4966183;28;20034;-54
2023/01/18 04:19:39;;;;;;;2.95;1.50;;;4.90;70.10;;;-0.28;100.00;92798.72;4971107;28;20580;-49
2023/01/18 04:22:06;;;;;;;1.73;1.45;;;4.80;70.10;;;-0.25;100.00;92802.66;4970774;28;20574;-49
2023/01/18 04:24:35;;;;;;;3.90;1.50;;;4.90;70.20;;;-0.23;100.00;92800.53;4965880;28;20022;-49
2023/01/18 04:27:01;;;;;;;2.20;1.17;;;4.80;70.10;;;-0.21;100.00;92803.69;4971521;28;20034;-53
2023/01/18 04:29:28;;;;;;;5.45;1.30;;;4.90;70.10;;;-0.23;100.00;92808.38;4970309;28;20019;-50
2023/01/18 04:32:04;;;;;;;2.33;1.50;;;4.90;70.20;;;-0.25;100.00;92806.03;4974054;28;20045;-51
2023/01/18 04:34:31;;;;;;;2.40;1.63;;;4.90;70.10;;;-0.28;100.00;92800.56;4971942;28;20029;-49
2023/01/18 04:36:58;;;;;;;5.65;1.60;;;4.90;70.20;;;-0.23;100.00;92808.38;4970672;28;20388;-53
2023/01/18 04:39:26;;;;;;;2.55;1.40;;;4.90;70.10;;;-0.20;100.00;92812.31;4982884;28;20062;-48
2023/01/18 04:41:55;;;;;;;2.03;1.40;;;4.90;70.10;;;-0.21;100.00;92806.28;4952886;28;20036;-55
2023/01/18 04:44:21;;;;;;;1.45;1.30;;;4.90;70.10;;;-0.22;100.00;92814.41;4970142;28;20088;-48
2023/01/18 04:46:47;;;;;;;1.75;1.33;;;4.90;70.10;;;-0.18;100.00;92818.06;4968543;28;20038;-52
2023/01/18 04:49:19;;;;;;;2.28;1.50;;;4.90;70.10;;;-0.16;100.00;92819.34;4966703;28;20022;-53
2023/01/18 04:51:46;;;;;;;2.10;1.50;;;4.90;70.20;;;-0.14;100.00;92819.09;4971750;28;20042;-48
2023/01/18 04:54:18;;;;;;;2.58;1.30;;;4.90;70.10;;;-0.14;100.00;92819.88;4967894;28;20670;-49
2023/01/18 04:56:44;;;;;;;2.65;1.30;;;4.90;70.10;;;-0.16;100.00;92813.34;4967067;28;20485;-56
2023/01/18 04:59:19;;;;;;;1.23;1.13;;;4.90;69.90;;;-0.22;100.00;92814.41;4969300;28;20405;-54
2023/01/18 05:01:45;;;;;;;1.83;1.27;;;4.90;69.70;;;-0.33;100.00;92819.66;4984369;28;20524;-53
2023/01/18 05:04:20;;;;;;;1.60;1.20;;;4.90;69.60;;;-0.38;100.00;92824.09;4971176;28;20030;-48
2023/01/18 05:06:49;;;;;;;3.20;1.38;;;4.80;69.60;;;-0.40;100.00;92828.84;4969330;28;20034;-53
2023/01/18 05:09:16;;;;;;;2.65;1.50;;;4.70;69.60;;;-0.41;100.00;92835.88;4971436;28;20076;-50
2023/01/18 05:11:44;;;;;;;2.08;1.65;;;4.70;69.60;;;-0.47;100.00;92836.91;4960897;28;20023;-57
2023/01/18 05:14:12;;;;;;;2.45;1.63;;;4.60;69.60;;;-0.53;100.00;92835.38;4984535;28;20056;-51
2023/01/18 05:16:38;;;;;;;1.98;1.38;;;4.60;69.60;;;-0.56;100.00;92847.16;4982564;28;20500;-49
2023/01/18 05:19:06;;;;;;;3.40;1.50;;;4.50;69.60;;;-0.58;100.00;92862.31;4969253;28;20034;-53
2023/01/18 05:21:32;;;;;;;3.60;1.50;;;4.50;69.70;;;-0.54;100.00;92862.56;4985481;28;20026;-53
2023/01/18 05:24:04;;;;;;;3.10;1.60;;;4.50;70.00;;;-0.49;100.00;92865.97;4968817;28;20029;-48
2023/01/18 05:26:34;;;;;;;2.40;1.30;;;4.60;70.20;;;-0.45;100.00;92868.84;4974797;28;20137;-51
2023/01/18 05:28:59;;;;;;;1.60;1.42;;;4.50;70.20;;;-0.43;100.00;92868.59;4968429;28;20285;-56
2023/01/18 05:31:34;;;;;;;2.75;1.50;;;4.60;70.30;;;-0.38;100.00;92877.19;4979644;28;20499;-53
2023/01/18 05:34:03;;;;;;;1.60;1.40;;;4.60;70.30;;;-0.34;100.00;92877.47;4969142;28;20061;-50
2023/01/18 05:36:29;;;;;;;1.98;1.70;;;4.70;70.30;;;-0.30;100.00;92884.53;4964418;28;20018;-55
2023/01/18 05:39:00;;;;;;;2.95;1.30;;;4.70;70.30;;;-0.27;100.00;92891.84;4970961;28;20038;-48
2023/01/18 05:41:26;;;;;;;1.63;1.15;;;4.70;70.30;;;-0.28;100.00;92892.91;4966431;28;20417;-53
2023/01/18 05:43:51;;;;;;;1.90;1.35;;;4.80;70.20;;;-0.21;100.00;92904.94;4967099;28;20026;-49
2023/01/18 05:46:17;;;;;;;5.03;1.45;;;4.80;70.20;;;-0.18;100.00;92910.44;4969912;28;20026;-54
2023/01/18 05:48:58;;;;;;;3.60;1.50;;;4.90;70.20;;;-0.16;100.00;92913.53;4962196;28;20388;-52
2023/01/18 05:51:25;;;;;;;2.33;1.60;;;4.90;70.10;;;-0.14;100.00;92906.22;4970190;28;20022;-56
2023/01/18 05:53:50;;;;;;;1.63;1.25;;;4.90;70.00;;;-0.09;100.00;92908.06;4969005;28;20101;-54
2023/01/18 05:56:20;;;;;;;3.50;1.50;;;4.90;70.00;;;-0.10;100.00;92912.50;4983549;28;20104;-53
2023/01/18 05:58:48;;;;;;;2.33;1.60;;;4.90;69.80;;;-0.14;100.00;92921.94;4969937;28;20030;-53
2023/01/18 06:01:14;;;;;;;2.35;1.52;;;4.90;69.80;;;-0.14;100.00;92924.53;4971351;28;20042;-51
2023/01/18 06:03:42;;;;;;;4.35;1.80;;;5.00;69.80;;;-0.13;100.00;92928.72;4968971;28;20426;-50
2023/01/18 06:06:08;;;;;;;2.53;1.58;;;5.00;69.70;;;-0.14;100.00;92932.41;4962589;28;20355;-50
2023/01/18 06:08:34;;;;;;;1.90;1.38;;;5.00;69.70;;;-0.14;100.00;92932.41;4968606;28;20081;-52
2023/01/18 06:11:01;;;;;;;4.65;1.45;;;5.00;69.70;;;-0.10;100.00;92949.13;4948399;28;20038;-55
2023/01/18 06:13:31;;;;;;;4.90;1.70;;;5.00;69.60;;;-0.11;100.00;92950.19;4951250;28;20383;-49
2023/01/18 06:16:01;;;;;;;2.63;1.85;;;5.00;69.60;;;-0.08;100.00;92949.66;4970337;28;20030;-48
2023/01/18 06:18:32;;;;;;;2.70;1.55;;;5.00;69.60;;;-0.04;100.00;92963.78;4973451;28;20030;-51
2023/01/18 06:21:08;;;;;;;4.07;1.60;;;5.10;69.60;;;-0.03;100.00;92964.59;4968304;28;20033;-53
2023/01/18 06:23:39;;;;;;;3.22;1.88;;;5.00;69.60;;;-0.01;100.00;92965.88;4979706;28;20022;-54
2023/01/18 06:26:05;;;;;;;2.63;1.85;;;5.10;69.70;;;0.03;100.00;92968.75;4955668;28;20030;-51
2023/01/18 06:28:31;;;;;;;2.47;1.98;;;5.10;69.70;;;0.03;100.00;92971.38;4965693;28;20064;-52
2023/01/18 06:31:03;;;;;;;3.95;1.92;;;5.10;69.70;;;0.07;100.00;92982.91;4964354;28;20030;-50
2023/01/18 06:33:29;;;;;;;3.22;2.28;;;5.10;69.60;;;0.09;100.00;92986.03;4967069;28;20054;-49
2023/01/18 06:35:55;;;;;;;3.03;1.85;;;5.10;69.60;;;0.09;100.00;92993.88;4951905;28;20484;-48
2023/01/18 06:38:21;;;;;;;3.28;2.25;;;5.20;69.70;;;0.06;100.00;92994.41;4968467;28;20129;-53
2023/01/18 06:40:50;;;;;;;4.45;2.63;;;5.20;69.60;;;0.03;100.00;92997.56;4968711;28;20065;-49
2023/01/18 06:43:16;;;;;;;4.25;3.13;;;5.20;69.60;;;0.02;100.00;92989.97;4970000;28;20053;-50
2023/01/18 06:45:51;;;;;;;6.03;3.20;;;5.20;69.50;;;0.03;100.00;93007.25;4965344;28;20058;-55
2023/01/18 06:48:17;;;;;;;4.78;3.42;;;5.20;69.60;;;0.05;100.00;93008.56;4964789;28;20081;-51
2023/01/18 06:50:42;;;;;;;6.68;3.88;;;5.10;69.50;;;0.06;100.00;93011.94;4966487;28;20026;-49
2023/01/18 06:53:08;;;;;;;5.82;3.47;;;5.10;69.60;;;0.06;100.00;93015.34;4965267;28;20027;-51
2023/01/18 06:55:40;;;;;;;15.88;4.43;;;5.10;69.70;;;0.01;100.00;93012.75;4916877;28;24580;-48
2023/01/18 06:58:06;;;;;;;4.57;3.58;;;5.10;69.70;;;0.01;100.00;93025.06;4974731;28;20397;-48
2023/01/18 07:00:34;;;;;;;5.97;4.05;;;5.10;69.70;;;-0.10;100.00;93026.88;4976997;28;20413;-51
2023/01/18 07:03:00;;;;;;;6.35;4.28;;;5.00;69.60;;;-0.15;100.00;93032.88;4974025;28;20373;-54
2023/01/18 07:05:26;;;;;;;7.63;4.78;;;5.10;69.70;;;-0.11;100.00;93041.00;4957683;28;20072;-52
2023/01/18 07:07:52;;;;;;;17.02;5.03;;;5.00;69.70;;;-0.11;100.00;93041.00;4990049;28;20025;-50
2023/01/18 07:10:18;;;;;;;42.22;6.18;;;5.00;69.70;;;-0.14;100.00;93039.69;4992039;28;20029;-54
2023/01/18 07:12:47;;;;;;;201.05;12.00;;;4.90;69.70;;;-0.16;100.00;93047.00;4977774;28;20037;-55
2023/01/18 07:15:19;;;;;;;20.20;5.40;;;5.00;69.80;;;-0.17;100.00;93055.13;4991298;28;20110;-48
2023/01/18 07:17:44;;;;;;;9.00;5.53;;;5.00;69.80;;;-0.15;100.00;93050.44;4988541;28;20060;-50
2023/01/18 07:20:18;;;;;;;21.25;5.85;;;4.90;69.80;;;-0.16;100.00;93059.31;4971193;28;20034;-52
2023/01/18 07:22:48;;;;;;;27.00;5.68;;;4.90;69.80;;;-0.11;100.00;93069.78;4988560;28;20188;-53
2023/01/18 07:25:19;;;;;;;12.63;5.97;;;5.00;70.00;;;-0.15;100.00;93076.59;4990898;28;20436;-52
2023/01/18 07:27:47;;;;;;;88.38;8.20;;;5.00;70.00;;;-0.18;100.00;93071.88;4973635;28;20068;-49
2023/01/18 07:30:15;;;;;;;9.80;6.32;;;5.00;70.00;;;-0.17;100.00;93081.28;4973068;28;20053;-50
2023/01/18 07:32:51;;;;;;;11.13;5.93;;;5.00;70.00;;;-0.13;100.00;93082.34;4991322;28;20032;-53
2023/01/18 07:35:21;;;;;;;9.43;5.78;;;5.00;70.00;;;-0.13;100.00;93095.41;4986341;28;20101;-55
2023/01/18 07:37:51;;;;;;;9.27;5.55;;;5.00;70.00;;;-0.18;100.00;93093.59;4976727;28;20030;-51
2023/01/18 07:40:20;;;;;;;4.80;3.60;;;5.00;70.00;;;-0.19;100.00;93104.31;4985881;28;20017;-52
2023/01/18 07:42:48;;;;;;;4.00;2.88;;;5.10;69.90;;;-0.29;100.00;93100.59;4988522;28;20021;-51
2023/01/18 07:45:15;;;;;;;4.15;2.80;;;5.00;69.90;;;-0.25;100.00;93108.75;4977971;28;20028;-48
2023/01/18 07:47:42;;;;;;;3.35;2.28;;;5.10;69.90;;;-0.24;100.00;93107.69;4995034;28;20111;-51
2023/01/18 07:50:09;;;;;;;3.58;2.17;;;5.10;69.80;;;-0.24;100.00;93111.09;4972200;28;20040;-49
2023/01/18 07:52:38;;;;;;;2.90;2.15;;;5.10;69.80;;;-0.21;100.00;93120.28;4972111;28;20018;-52
2023/01/18 07:55:05;;;;;;;5.68;2.10;;;5.10;69.70;;;-0.20;100.00;93121.84;4988537;28;20053;-54
2023/01/18 07:57:31;;;;;;;3.10;1.67;;;5.20;69.70;;;-0.20;100.00;93121.06;4991246;28;20028;-55
2023/01/18 07:59:57;;;;;;;1.92;1.17;;;5.20;69.60;;;-0.28;100.00;93122.34;4972697;28;20038;-53
2023/01/18 08:02:28;;;;;;;1.60;1.23;;;5.20;69.40;;;-0.29;100.00;93132.00;4988731;28;20064;-57
2023/01/18 08:04:54;;;;;;;3.53;1.30;;;5.20;69.30;;;-0.29;100.00;93134.63;4988275;28;20040;-53
2023/01/18 08:07:20;;;;;;;1.60;1.30;;;5.20;69.30;;;-0.26;100.00;93131.50;4983217;28;20436;-56
2023/01/18 08:09:49;;;;;;;2.45;1.80;;;5.20;69.20;;;-0.28;100.00;93141.44;4989905;28;20033;-56
2023/01/18 08:12:21;;;;;;;1.38;1.08;;;5.30;69.20;;;-0.23;100.00;93140.66;4982151;28;20025;-57
2023/01/18 08:14:50;;;;;;;2.00;1.60;;;5.30;69.20;;;-0.17;100.00;93152.72;4974398;28;20026;-57
2023/01/18 08:17:19;;;;;;;1.90;1.38;;;5.30;69.10;;;-0.12;100.00;93151.97;4988192;28;20037;-55
2023/01/18 08:19:51;;;;;;;4.30;1.40;;;5.40;69.10;;;-0.12;100.00;93157.19;4962385;28;20116;-56
2023/01/18 08:22:16;;;;;;;1.75;1.50;;;5.40;68.90;;;-0.05;100.00;93168.22;4990096;28;20064;-55
2023/01/18 08:24:48;;;;;;;2.90;1.85;;;5.60;68.90;;;0.01;100.00;93171.63;4965845;28;20046;-58
2023/01/18 08:27:20;;;;;;;3.00;1.60;;;5.70;68.70;;;0.01;100.00;93176.88;4991580;28;20031;-56
2023/01/18 08:29:47;;;;;;;2.57;1.70;;;5.80;68.50;;;0.08;100.00;93178.19;4972454;28;20352;-58
2023/01/18 08:32:18;;;;;;;2.38;1.70;;;5.90;68.30;;;0.17;100.00;93173.25;4974107;28;20028;-54
2023/01/18 08:34:51;;;;;;;2.42;1.50;;;6.00;68.20;;;0.14;100.00;93181.63;4931132;28;20102;-57
2023/01/18 08:37:17;;;;;;;4.75;1.95;;;6.10;68.10;;;0.23;100.00;93186.09;4989213;28;20148;-54
2023/01/18 08:39:43;;;;;;;2.30;1.83;;;6.10;67.90;;;0.29;100.00;93188.72;4990357;28;20156;-56
2023/01/18 08:42:12;;;;;;;2.00;1.60;;;6.20;67.80;;;0.26;100.00;93190.03;4989767;28;20083;-56
2023/01/18 08:44:38;;;;;;;2.17;1.80;;;6.30;67.60;;;0.34;100.00;93199.97;4986159;28;20140;-56
2023/01/18 08:47:04;;;;;;;2.50;2.03;;;6.40;67.50;;;0.40;100.00;93206.81;4968068;28;20098;-55
2023/01/18 08:49:31;;;;;;;3.30;2.58;;;6.50;67.30;;;0.48;100.00;93208.13;4981086;28;20033;-55
2023/01/18 08:52:00;;;;;;;2.42;1.83;;;6.60;67.20;;;0.44;100.00;93220.97;4989441;28;20099;-56
2023/01/18 08:54:31;;;;;;;3.15;1.70;;;6.70;67.00;;;0.44;100.00;93217.56;4971166;28;20021;-58
2023/01/18 08:57:03;;;;;;;2.42;1.80;;;6.60;66.80;;;0.40;100.00;93217.28;4989782;28;20488;-56
2023/01/18 08:59:34;;;;;;;2.75;1.90;;;6.60;66.80;;;0.45;100.00;93225.16;4988132;28;20037;-56
2023/01/18 09:02:00;;;;;;;2.53;1.90;;;6.60;66.80;;;0.55;100.00;93231.47;4986246;28;20375;-53
2023/01/18 09:04:29;;;;;;;17.13;2.47;;;6.60;66.70;;;0.55;100.00;93234.88;4988800;28;20060;-55
2023/01/18 09:06:57;;;;;;;2.88;1.90;;;6.70;66.80;;;0.63;100.00;93236.22;4969352;28;20028;-58
2023/01/18 09:09:23;;;;;;;3.10;2.10;;;6.70;66.80;;;0.67;100.00;93239.88;4967955;28;20075;-51
2023/01/18 09:11:56;;;;;;;2.75;1.90;;;6.80;66.70;;;0.74;100.00;93237.00;4976683;28;20029;-56
2023/01/18 09:14:22;;;;;;;2.17;1.98;;;6.80;66.60;;;0.76;100.00;93253.25;4985571;28;20017;-56
2023/01/18 09:16:48;;;;;;;6.10;1.90;;;6.90;67.20;;;0.82;100.00;93253.00;4985961;28;20363;-54
2023/01/18 09:19:22;;;;;;;3.25;1.85;;;7.00;66.40;;;0.88;100.00;93259.03;4993091;28;20017;-55
2023/01/18 09:21:51;;;;;;;2.20;1.90;;;7.10;66.20;;;1.00;99.84;93258.75;4979509;28;20484;-51
2023/01/18 09:24:17;;;;;;;2.03;1.80;;;7.20;66.10;;;1.02;98.79;93259.31;4951102;28;20439;-58
2023/01/18 09:26:45;;;;;;;2.13;1.70;;;7.30;66.00;;;0.97;98.69;93282.88;4954128;28;20029;-58
2023/01/18 09:29:17;;;;;;;2.58;1.90;;;7.30;65.80;;;0.78;97.99;93277.34;4975870;28;20042;-59
2023/01/18 09:31:47;;;;;;;2.87;2.20;;;7.20;65.60;;;0.79;98.38;93281.56;4969819;28;20021;-56
2023/01/18 09:34:17;;;;;;;1.45;1.20;;;7.20;65.60;;;0.76;95.76;93295.97;4972440;28;20276;-57
2023/01/18 09:36:43;;;;;;;3.40;1.63;;;7.30;65.50;;;0.81;94.26;93297.81;4979317;28;20026;-52
2023/01/18 09:39:11;;;;;;;1.30;1.20;;;7.40;65.20;;;0.91;93.09;93308.31;4971089;28;20053;-59
2023/01/18 09:41:53;;;;;;;1.42;1.15;;;7.50;64.90;;;0.98;93.06;93311.47;4971687;28;20117;-59
2023/01/18 09:44:44;;;;;;;1.60;1.48;;;7.70;64.50;;;1.04;91.32;93313.06;4987695;28;20022;-55
2023/01/18 09:47:23;;;;;;;1.20;1.10;;;7.90;64.10;;;1.11;91.47;93313.59;4971218;28;20026;-59
2023/01/18 09:49:58;;;;;;;1.50;1.33;;;8.10;63.70;;;1.29;90.87;93328.03;4987689;28;20415;-57
2023/01/18 09:53:06;;;;;;;1.30;1.20;;;8.20;63.30;;;1.35;89.22;93319.13;4989106;28;20033;-57
2023/01/18 09:55:53;;;;;;;1.27;1.17;;;8.40;62.90;;;1.45;88.20;93320.94;4981864;28;20357;-58
2023/01/18 09:59:05;;;;;;;2.00;1.63;;;8.60;62.60;;;1.60;87.78;93320.94;4971829;28;20029;-58
2023/01/18 10:01:35;;;;;;;1.50;1.30;;;8.90;63.00;;;1.79;87.72;93331.69;4952801;28;20452;-60
2023/01/18 10:04:15;;;;;;;2.20;1.10;;;9.10;62.00;;;1.93;86.12;93339.81;4953368;28;20426;-60
2023/01/18 10:07:22;;;;;;;1.30;1.20;;;9.40;61.50;;;2.23;86.21;93349.47;4947717;28;20026;-59
2023/01/18 10:09:59;;;;;;;1.38;1.17;;;9.70;61.10;;;2.44;84.36;93344.94;4955563;28;20505;-57
2023/01/18 10:12:31;;;;;;;1.90;1.38;;;10.10;60.70;;;2.67;82.73;93359.31;4957653;28;20109;-57
2023/01/18 10:15:21;;;;;;;1.75;1.20;;;10.40;59.90;;;2.88;81.25;93360.00;4949629;28;20514;-60
2023/01/18 10:17:56;;;;;;;1.65;1.27;;;10.80;59.40;;;3.01;80.04;93364.69;4930134;28;20410;-59
2023/01/18 10:20:39;;;;;;;1.30;1.20;;;11.20;58.90;;;3.18;78.60;93366.19;4956929;28;20027;-60
2023/01/18 10:23:15;;;;;;;1.25;1.15;;;11.60;58.50;;;3.25;77.66;93366.66;4945725;28;20053;-59
2023/01/18 10:26:28;;;;;;;0.90;0.90;;;11.80;57.90;;;3.36;76.15;93368.19;4951720;28;20023;-59
2023/01/18 10:29:11;;;;;;;1.50;1.40;;;12.10;57.90;;;3.58;75.79;93375.66;4936557;28;20629;-60
2023/01/18 10:32:16;;;;;;;1.40;1.30;;;12.30;57.60;;;3.75;74.54;93380.53;4948339;28;20165;-59
2023/01/18 10:34:50;;;;;;;1.30;1.20;;;12.70;56.50;;;3.83;75.58;93384.44;4947977;28;20050;-60
2023/01/18 10:37:45;;;;;;;1.20;1.10;;;12.80;55.90;;;3.91;74.08;93384.63;4948914;28;20054;-58
2023/01/18 10:40:14;;;;;;;2.40;1.38;;;12.90;55.40;;;4.00;73.93;93390.06;4946892;28;20043;-58
2023/01/18 10:42:55;;;;;;;1.50;1.40;;;13.00;55.20;;;4.12;74.11;93395.00;4927494;29;20510;-59
2023/01/18 10:45:29;;;;;;;1.50;1.40;;;13.10;55.00;;;4.13;72.58;93391.28;4960307;28;20050;-58
2023/01/18 10:48:12;;;;;;;1.40;1.30;;;13.10;54.80;;;4.14;73.43;93398.16;4932072;29;20038;-57
2023/01/18 10:50:47;;;;;;;1.83;1.20;;;13.10;54.60;;;4.25;72.46;93401.47;4948148;29;20429;-58
2023/01/18 10:53:22;;;;;;;1.27;1.17;;;13.00;54.30;;;4.25;72.93;93410.16;4947710;29;20655;-59
2023/01/18 10:56:23;;;;;;;2.92;1.48;;;13.00;54.30;;;4.16;71.61;93403.91;4945901;29;20498;-60
2023/01/18 10:59:00;;;;;;;4.43;1.30;;;13.00;54.10;;;4.16;71.68;93409.97;4949002;28;20034;-57
2023/01/18 11:01:55;;;;;;;1.30;1.20;;;12.90;53.90;;;4.18;70.98;93418.38;4961721;28;20108;-60
2023/01/18 11:04:33;;;;;;;1.42;1.30;;;12.80;53.70;;;4.20;71.05;93419.94;4967625;28;20026;-58
2023/01/18 11:07:05;;;;;;;1.55;1.20;;;12.80;53.70;;;4.26;70.71;93422.28;4966627;28;20128;-58
2023/01/18 11:09:54;;;;;;;1.13;1.02;;;12.80;53.50;;;4.14;71.30;93424.50;4957023;28;20395;-58
2023/01/18 11:12:43;;;;;;;1.40;1.30;;;12.80;53.30;;;4.02;71.62;93427.47;4954881;28;20042;-60
2023/01/18 11:15:14;;;;;;;1.40;1.30;;;12.80;53.10;;;4.02;71.60;93429.34;4973679;28;20022;-60
2023/01/18 11:17:54;;;;;;;1.73;1.40;;;12.70;53.10;;;4.11;71.82;93432.94;4960808;28;20471;-59
2023/01/18 11:20:51;;;;;;;1.50;1.20;;;12.60;53.10;;;4.03;71.55;93436.16;4967054;28;20037;-57